createdAt,value
2022-10-08T00:01:29.025Z,8.10
2022-10-08T00:03:57.781Z,8.90
2022-10-08T00:06:28.118Z,11.90
2022-10-08T00:08:58.546Z,9.73
2022-10-08T00:11:29.683Z,11.63
2022-10-08T00:13:58.654Z,12.83
2022-10-08T00:16:29.536Z,11.30
2022-10-08T00:19:01.070Z,11.73
2022-10-08T00:21:31.485Z,13.60
2022-10-08T00:24:01.422Z,13.90
2022-10-08T00:26:32.727Z,13.53
2022-10-08T00:29:03.061Z,14.40
2022-10-08T00:31:33.113Z,14.50
2022-10-08T00:34:03.716Z,13.00
2022-10-08T00:36:33.107Z,13.33
2022-10-08T00:39:03.019Z,14.37
2022-10-08T00:41:34.385Z,12.67
2022-10-08T00:44:04.304Z,14.17
2022-10-08T00:46:36.659Z,14.37
2022-10-08T00:49:11.942Z,12.33
2022-10-08T00:51:44.109Z,12.70
2022-10-08T00:54:13.381Z,12.77
2022-10-08T00:56:43.263Z,13.07
2022-10-08T00:59:13.694Z,11.93
2022-10-08T01:01:43.463Z,12.17
2022-10-08T01:04:12.959Z,13.17
2022-10-08T01:06:50.493Z,12.17
2022-10-08T01:09:24.351Z,12.87
2022-10-08T01:12:00.246Z,11.27
2022-10-08T01:14:40.330Z,11.90
2022-10-08T01:17:17.855Z,11.90
2022-10-08T01:20:18.382Z,10.90
2022-10-08T01:23:12.114Z,10.47
2022-10-08T01:25:54.030Z,11.13
2022-10-08T01:28:29.663Z,9.80
2022-10-08T01:31:02.863Z,9.40
2022-10-08T01:33:34.725Z,9.77
2022-10-08T01:36:06.282Z,8.93
2022-10-08T01:38:41.055Z,10.07
2022-10-08T01:41:11.471Z,9.07
2022-10-08T01:43:45.018Z,8.57
2022-10-08T01:46:19.279Z,8.43
2022-10-08T01:48:50.200Z,8.17
2022-10-08T01:51:23.364Z,8.17
2022-10-08T01:53:53.213Z,8.10
2022-10-08T01:56:25.794Z,9.10
2022-10-08T01:59:00.044Z,7.77
2022-10-08T02:01:34.029Z,8.77
2022-10-08T02:04:19.672Z,8.57
2022-10-08T02:06:53.159Z,9.10
2022-10-08T02:09:23.345Z,8.37
2022-10-08T02:11:51.127Z,9.00
2022-10-08T02:14:22.068Z,8.63
2022-10-08T02:16:55.991Z,7.77
2022-10-08T02:19:34.521Z,8.33
2022-10-08T02:22:04.749Z,7.90
2022-10-08T02:24:38.746Z,7.13
2022-10-08T02:27:09.778Z,7.40
2022-10-08T02:29:42.735Z,7.37
2022-10-08T02:32:16.184Z,8.13
2022-10-08T02:34:50.343Z,7.43
2022-10-08T02:37:22.835Z,12.00
2022-10-08T02:39:55.904Z,6.87
2022-10-08T02:42:25.525Z,7.13
2022-10-08T02:45:00.769Z,7.37
2022-10-08T02:47:32.686Z,6.97
2022-10-08T02:50:04.740Z,5.90
2022-10-08T02:52:36.097Z,7.53
2022-10-08T02:55:08.691Z,7.17
2022-10-08T02:57:43.288Z,6.97
2022-10-08T03:00:14.181Z,7.70
2022-10-08T03:02:48.012Z,6.37
2022-10-08T03:05:19.639Z,7.53
2022-10-08T03:07:51.524Z,6.57
2022-10-08T03:10:19.887Z,7.67
2022-10-08T03:12:48.757Z,6.80
2022-10-08T03:15:18.201Z,6.47
2022-10-08T03:17:48.264Z,6.13
2022-10-08T03:20:16.128Z,9.07
2022-10-08T03:22:44.734Z,6.20
2022-10-08T03:25:12.681Z,6.47
2022-10-08T03:27:40.451Z,6.53
2022-10-08T03:30:09.386Z,6.27
2022-10-08T03:32:38.513Z,7.37
2022-10-08T03:35:06.631Z,6.10
2022-10-08T03:37:34.481Z,5.83
2022-10-08T03:40:02.297Z,5.53
2022-10-08T03:42:30.062Z,5.53
2022-10-08T03:44:57.792Z,5.73
2022-10-08T03:47:25.687Z,5.53
2022-10-08T03:49:54.965Z,5.57
2022-10-08T03:52:22.751Z,4.80
2022-10-08T03:54:50.473Z,6.40
2022-10-08T03:57:18.216Z,5.37
2022-10-08T03:59:45.951Z,5.63
2022-10-08T04:02:13.706Z,5.53
2022-10-08T04:04:41.498Z,5.27
2022-10-08T04:07:10.678Z,5.53
2022-10-08T04:09:38.431Z,5.17
2022-10-08T04:12:06.305Z,6.73
2022-10-08T04:14:34.121Z,5.27
2022-10-08T04:17:01.844Z,6.83
2022-10-08T04:19:29.561Z,5.30
2022-10-08T04:21:57.289Z,5.43
2022-10-08T04:24:26.414Z,5.50
2022-10-08T04:26:54.295Z,4.93
2022-10-08T04:29:22.067Z,5.10
2022-10-08T04:31:49.847Z,6.83
2022-10-08T04:34:18.372Z,4.87
2022-10-08T04:36:46.139Z,5.43
2022-10-08T04:39:13.863Z,5.97
2022-10-08T04:41:42.973Z,8.40
2022-10-08T04:44:10.764Z,5.67
2022-10-08T04:46:38.665Z,5.20
2022-10-08T04:49:06.539Z,6.30
2022-10-08T04:51:34.293Z,5.47
2022-10-08T04:54:02.807Z,4.63
2022-10-08T04:56:34.691Z,4.40
2022-10-08T04:59:04.922Z,5.20
2022-10-08T05:01:32.730Z,5.03
2022-10-08T05:04:00.860Z,4.80
2022-10-08T05:06:30.512Z,7.00
2022-10-08T05:09:02.461Z,5.33
2022-10-08T05:11:30.964Z,5.47
2022-10-08T05:13:59.821Z,5.63
2022-10-08T05:16:29.230Z,5.80
2022-10-08T05:18:57.481Z,4.63
2022-10-08T05:21:26.895Z,5.33
2022-10-08T05:23:55.643Z,5.40
2022-10-08T05:26:53.119Z,5.93
2022-10-08T05:29:13.709Z,8.37
2022-10-08T05:31:42.895Z,7.30
2022-10-08T05:34:10.890Z,5.57
2022-10-08T05:36:38.736Z,5.23
2022-10-08T05:39:07.329Z,6.63
2022-10-08T05:41:38.471Z,6.07
2022-10-08T05:44:07.447Z,4.03
2022-10-08T05:46:37.385Z,7.37
2022-10-08T05:49:09.220Z,4.93
2022-10-08T05:51:38.464Z,4.70
2022-10-08T05:54:06.394Z,4.40
2022-10-08T05:56:34.318Z,4.97
2022-10-08T05:59:02.063Z,5.13
2022-10-08T06:01:32.174Z,7.80
2022-10-08T06:04:05.674Z,8.50
2022-10-08T06:06:38.630Z,8.43
2022-10-08T06:09:08.058Z,5.87
2022-10-08T06:11:38.026Z,4.73
2022-10-08T06:14:07.146Z,5.57
2022-10-08T06:16:35.880Z,7.17
2022-10-08T06:19:06.643Z,6.77
2022-10-08T06:21:35.852Z,5.57
2022-10-08T06:24:07.545Z,9.30
2022-10-08T06:26:38.622Z,8.27
2022-10-08T06:29:07.296Z,10.30
2022-10-08T06:31:35.378Z,4.53
2022-10-08T06:34:04.862Z,5.27
2022-10-08T06:36:34.596Z,6.40
2022-10-08T06:39:04.529Z,5.57
2022-10-08T06:41:35.005Z,5.70
2022-10-08T06:44:03.995Z,7.03
2022-10-08T06:46:32.720Z,6.90
2022-10-08T06:49:01.744Z,7.33
2022-10-08T06:51:30.473Z,7.87
2022-10-08T06:54:06.636Z,5.67
2022-10-08T06:56:37.858Z,7.07
2022-10-08T06:59:06.199Z,4.77
2022-10-08T07:01:35.017Z,4.53
2022-10-08T07:04:06.921Z,6.23
2022-10-08T07:06:35.188Z,5.27
2022-10-08T07:09:03.415Z,4.60
2022-10-08T07:11:32.381Z,10.73
2022-10-08T07:14:01.903Z,6.60
2022-10-08T07:16:33.005Z,8.87
2022-10-08T07:19:01.364Z,6.40
2022-10-08T07:21:30.250Z,5.60
2022-10-08T07:24:00.146Z,5.60
2022-10-08T07:26:30.671Z,6.93
2022-10-08T07:29:02.425Z,5.63
2022-10-08T07:31:33.401Z,6.43
2022-10-08T07:34:02.985Z,6.90
2022-10-08T07:36:31.241Z,6.50
2022-10-08T07:39:03.830Z,8.77
2022-10-08T07:41:32.197Z,5.10
2022-10-08T07:44:03.035Z,5.20
2022-10-08T07:46:32.226Z,5.90
2022-10-08T07:49:01.485Z,7.20
2022-10-08T07:51:31.311Z,5.87
2022-10-08T07:54:03.743Z,4.27
2022-10-08T07:56:32.591Z,4.20
2022-10-08T07:59:03.049Z,5.17
2022-10-08T08:01:33.363Z,6.83
2022-10-08T08:04:03.271Z,7.63
2022-10-08T08:06:32.997Z,7.03
2022-10-08T08:09:02.111Z,7.07
2022-10-08T08:11:30.997Z,7.13
2022-10-08T08:13:58.979Z,5.90
2022-10-08T08:16:30.231Z,5.83
2022-10-08T08:19:01.140Z,8.27
2022-10-08T08:21:30.709Z,4.33
2022-10-08T08:24:03.401Z,5.33
2022-10-08T08:26:34.031Z,5.90
2022-10-08T08:29:04.113Z,6.33
2022-10-08T08:31:34.932Z,6.93
2022-10-08T08:34:05.602Z,4.20
2022-10-08T08:36:35.771Z,5.93
2022-10-08T08:39:05.355Z,7.90
2022-10-08T08:41:45.822Z,5.23
2022-10-08T08:44:19.761Z,4.63
2022-10-08T08:46:54.868Z,5.67
2022-10-08T08:49:29.378Z,6.23
2022-10-08T08:51:59.249Z,5.00
2022-10-08T08:54:27.336Z,5.53
2022-10-08T08:56:55.817Z,7.97
2022-10-08T08:59:29.385Z,5.63
2022-10-08T09:02:02.189Z,5.30
2022-10-08T09:04:45.046Z,7.87
2022-10-08T09:07:16.218Z,11.27
2022-10-08T09:09:48.976Z,8.17
2022-10-08T09:12:21.105Z,7.43
2022-10-08T09:14:53.959Z,12.60
2022-10-08T09:17:31.591Z,4.37
2022-10-08T09:20:00.534Z,7.80
2022-10-08T09:22:30.478Z,6.20
2022-10-08T09:25:00.834Z,4.93
2022-10-08T09:27:45.311Z,7.10
2022-10-08T09:30:32.785Z,5.57
2022-10-08T09:33:17.486Z,5.43
2022-10-08T09:35:50.443Z,5.70
2022-10-08T09:38:22.537Z,7.00
2022-10-08T09:41:05.694Z,8.90
2022-10-08T09:43:34.675Z,5.73
2022-10-08T09:46:11.571Z,9.40
2022-10-08T09:48:43.237Z,7.50
2022-10-08T09:51:16.296Z,9.47
2022-10-08T09:53:46.238Z,6.17
2022-10-08T09:56:15.916Z,4.83
2022-10-08T09:58:53.884Z,8.40
2022-10-08T10:01:22.450Z,7.53
2022-10-08T10:03:55.120Z,7.83
2022-10-08T10:06:28.108Z,8.27
2022-10-08T10:09:01.453Z,8.87
2022-10-08T10:11:36.485Z,7.03
2022-10-08T10:14:12.168Z,8.50
2022-10-08T10:16:43.846Z,7.27
2022-10-08T10:19:18.218Z,10.73
2022-10-08T10:21:54.911Z,8.23
2022-10-08T10:24:41.011Z,8.60
2022-10-08T10:27:13.211Z,9.97
2022-10-08T10:29:51.042Z,10.83
2022-10-08T10:32:23.806Z,7.17
2022-10-08T10:35:04.641Z,8.07
2022-10-08T10:37:41.550Z,8.10
2022-10-08T10:40:24.949Z,5.53
2022-10-08T10:42:59.465Z,12.43
2022-10-08T10:45:32.169Z,8.90
2022-10-08T10:48:01.092Z,9.27
2022-10-08T10:50:40.471Z,8.77
2022-10-08T10:53:17.347Z,13.43
2022-10-08T10:55:54.794Z,7.77
2022-10-08T10:58:45.265Z,8.73
2022-10-08T11:01:28.264Z,7.67
2022-10-08T11:04:04.360Z,7.87
2022-10-08T11:06:49.576Z,7.80
2022-10-08T11:09:28.384Z,11.60
2022-10-08T11:12:02.706Z,7.60
2022-10-08T11:14:42.600Z,10.97
2022-10-08T11:17:27.377Z,6.90
2022-10-08T11:20:04.451Z,12.27
2022-10-08T11:22:41.564Z,9.03
2022-10-08T11:25:22.046Z,11.57
2022-10-08T11:28:04.092Z,8.03
2022-10-08T11:30:41.711Z,14.00
2022-10-08T11:33:14.019Z,8.33
2022-10-08T11:35:51.101Z,10.63
2022-10-08T11:38:26.928Z,10.03
2022-10-08T11:40:57.610Z,11.47
2022-10-08T11:43:31.013Z,9.07
2022-10-08T11:46:22.982Z,9.37
2022-10-08T11:48:51.603Z,10.00
2022-10-08T11:51:31.778Z,8.70
2022-10-08T11:54:12.431Z,15.13
2022-10-08T11:56:43.026Z,9.43
2022-10-08T11:59:29.840Z,8.00
2022-10-08T12:01:59.445Z,9.30
2022-10-08T12:04:34.758Z,11.30
2022-10-08T12:07:18.436Z,10.07
2022-10-08T12:10:33.978Z,10.90
2022-10-08T12:13:27.686Z,7.37
2022-10-08T12:16:04.787Z,8.10
2022-10-08T12:18:43.812Z,10.63
2022-10-08T12:21:48.391Z,13.53
2022-10-08T12:24:52.649Z,13.63
2022-10-08T12:27:41.839Z,9.90
2022-10-08T12:30:13.881Z,8.57
2022-10-08T12:32:56.740Z,12.90
2022-10-08T12:35:28.618Z,9.57
2022-10-08T12:38:24.043Z,8.40
2022-10-08T12:41:03.531Z,11.93
2022-10-08T12:43:39.862Z,10.07
2022-10-08T12:46:18.727Z,13.17
2022-10-08T12:48:55.022Z,13.33
2022-10-08T12:51:30.553Z,10.53
2022-10-08T12:53:59.675Z,13.33
2022-10-08T12:56:30.390Z,8.47
2022-10-08T12:59:00.621Z,9.63
2022-10-08T13:01:30.385Z,14.73
2022-10-08T13:04:18.177Z,13.37
2022-10-08T13:06:46.425Z,10.00
2022-10-08T13:09:25.219Z,12.83
2022-10-08T13:11:57.141Z,9.27
2022-10-08T13:14:27.817Z,14.80
2022-10-08T13:16:57.962Z,11.90
2022-10-08T13:19:31.474Z,8.17
2022-10-08T13:22:01.370Z,10.87
2022-10-08T13:24:40.807Z,9.83
2022-10-08T13:27:24.312Z,14.50
2022-10-08T13:29:52.367Z,15.53
2022-10-08T13:32:24.179Z,11.87
2022-10-08T13:34:54.716Z,10.93
2022-10-08T13:37:29.038Z,16.00
2022-10-08T13:39:58.888Z,13.33
2022-10-08T13:42:30.141Z,11.77
2022-10-08T13:44:59.752Z,12.97
2022-10-08T13:47:29.583Z,14.57
2022-10-08T13:50:01.816Z,12.97
2022-10-08T13:52:32.404Z,15.77
2022-10-08T13:55:03.325Z,13.23
2022-10-08T13:57:31.298Z,14.77
2022-10-08T13:59:59.392Z,16.23
2022-10-08T14:02:28.737Z,13.50
2022-10-08T14:04:56.597Z,15.37
2022-10-08T14:07:28.830Z,16.20
2022-10-08T14:09:58.680Z,18.07
2022-10-08T14:12:30.173Z,16.93
2022-10-08T14:14:58.201Z,19.63
2022-10-08T14:17:26.288Z,17.10
2022-10-08T14:19:55.513Z,15.20
2022-10-08T14:22:23.759Z,19.30
2022-10-08T14:24:51.845Z,18.17
2022-10-08T14:27:19.666Z,19.77
2022-10-08T14:29:47.661Z,21.10
2022-10-08T14:32:15.534Z,20.07
2022-10-08T14:34:43.423Z,20.20
2022-10-08T14:37:12.940Z,25.10
2022-10-08T14:39:40.780Z,32.73
2022-10-08T14:42:08.756Z,22.73
2022-10-08T14:44:36.630Z,29.10
2022-10-08T14:47:04.578Z,22.33
2022-10-08T14:49:32.667Z,22.93
2022-10-08T14:52:00.603Z,26.00
2022-10-08T14:54:29.822Z,25.17
2022-10-08T14:56:57.811Z,25.27
2022-10-08T14:59:26.007Z,23.67
2022-10-08T15:01:54.020Z,25.90
2022-10-08T15:04:22.098Z,24.23
2022-10-08T15:06:50.126Z,26.30
2022-10-08T15:09:18.153Z,22.87
2022-10-08T15:11:47.437Z,24.43
2022-10-08T15:14:15.654Z,24.27
2022-10-08T15:16:43.962Z,24.80
2022-10-08T15:19:12.338Z,25.67
2022-10-08T15:21:40.296Z,24.47
2022-10-08T15:24:08.467Z,20.80
2022-10-08T15:26:36.492Z,18.40
2022-10-08T15:29:05.948Z,18.93
2022-10-08T15:31:34.239Z,19.97
2022-10-08T15:34:02.305Z,22.30
2022-10-08T15:36:32.517Z,25.30
2022-10-08T15:39:01.979Z,22.73
2022-10-08T15:41:31.864Z,24.60
2022-10-08T15:44:10.811Z,26.50
2022-10-08T15:46:38.990Z,29.23
2022-10-08T15:49:06.970Z,28.80
2022-10-08T15:51:35.098Z,32.80
2022-10-08T15:54:03.409Z,26.83
2022-10-08T15:56:31.848Z,27.97
2022-10-08T15:59:00.911Z,29.10
2022-10-08T16:01:31.132Z,24.93
2022-10-08T16:04:00.065Z,23.50
2022-10-08T16:06:30.170Z,26.73
2022-10-08T16:08:58.763Z,23.87
2022-10-08T16:11:28.774Z,21.57
2022-10-08T16:14:00.420Z,20.97
2022-10-08T16:16:28.874Z,25.67
2022-10-08T16:18:59.387Z,23.53
2022-10-08T16:21:29.294Z,27.20
2022-10-08T16:23:58.541Z,25.37
2022-10-08T16:26:28.867Z,26.10
2022-10-08T16:28:59.566Z,28.10
2022-10-08T16:31:29.690Z,31.77
2022-10-08T16:34:00.492Z,25.93
2022-10-08T16:36:29.811Z,23.57
2022-10-08T16:38:58.649Z,25.57
2022-10-08T16:41:28.203Z,26.63
2022-10-08T16:43:58.075Z,28.30
2022-10-08T16:46:28.410Z,27.33
2022-10-08T16:49:00.488Z,26.70
2022-10-08T16:51:30.792Z,25.70
2022-10-08T16:54:00.877Z,27.70
2022-10-08T16:56:30.755Z,27.30
2022-10-08T16:59:00.836Z,30.63
2022-10-08T17:01:29.294Z,31.53
2022-10-08T17:03:59.015Z,28.57
2022-10-08T17:06:28.002Z,27.93
2022-10-08T17:08:56.139Z,26.30
2022-10-08T17:11:23.981Z,26.27
2022-10-08T17:13:54.004Z,26.60
2022-10-08T17:16:24.027Z,28.23
2022-10-08T17:18:53.057Z,25.43
2022-10-08T17:21:23.415Z,26.40
2022-10-08T17:23:52.033Z,24.30
2022-10-08T17:26:21.970Z,24.03
2022-10-08T17:28:52.844Z,23.10
2022-10-08T17:31:24.280Z,20.00
2022-10-08T17:33:52.691Z,20.93
2022-10-08T17:36:23.748Z,18.87
2022-10-08T17:38:53.713Z,18.77
2022-10-08T17:41:23.091Z,17.53
2022-10-08T17:43:51.694Z,18.90
2022-10-08T17:46:21.101Z,15.73
2022-10-08T17:48:49.284Z,16.63
2022-10-08T17:51:18.744Z,18.87
2022-10-08T17:53:53.137Z,16.10
2022-10-08T17:56:21.843Z,14.93
2022-10-08T17:58:50.157Z,15.50
2022-10-08T18:01:19.712Z,14.93
2022-10-08T18:03:52.083Z,14.80
2022-10-08T18:06:20.182Z,15.07
2022-10-08T18:08:49.403Z,18.17
2022-10-08T18:11:18.027Z,16.80
2022-10-08T18:13:45.832Z,15.13
2022-10-08T18:16:16.011Z,13.40
2022-10-08T18:18:45.177Z,12.07
2022-10-08T18:21:15.087Z,14.60
2022-10-08T18:23:45.976Z,14.23
2022-10-08T18:26:19.021Z,15.87
2022-10-08T18:28:47.885Z,11.80
2022-10-08T18:31:17.276Z,15.70
2022-10-08T18:33:47.123Z,12.83
2022-10-08T18:36:17.179Z,20.70
2022-10-08T18:38:46.726Z,19.37
2022-10-08T18:41:18.053Z,22.47
2022-10-08T18:43:47.708Z,13.27
2022-10-08T18:46:17.002Z,16.30
2022-10-08T18:48:44.918Z,21.07
2022-10-08T18:51:16.707Z,13.77
2022-10-08T18:53:45.636Z,12.73
2022-10-08T18:56:15.986Z,17.90
2022-10-08T18:58:45.515Z,12.90
2022-10-08T19:01:19.552Z,16.70
2022-10-08T19:03:48.916Z,15.33
2022-10-08T19:06:18.010Z,15.00
2022-10-08T19:08:46.960Z,16.30
2022-10-08T19:11:16.553Z,16.83
2022-10-08T19:13:50.371Z,16.83
2022-10-08T19:16:18.536Z,14.63
2022-10-08T19:18:53.665Z,17.37
2022-10-08T19:21:24.992Z,14.10
2022-10-08T19:23:53.770Z,16.30
2022-10-08T19:26:22.988Z,17.13
2022-10-08T19:28:55.423Z,17.07
2022-10-08T19:31:25.903Z,17.67
2022-10-08T19:33:55.548Z,16.20
2022-10-08T19:36:25.237Z,15.67
2022-10-08T19:38:54.359Z,15.63
2022-10-08T19:41:24.819Z,15.37
2022-10-08T19:43:55.341Z,12.50
2022-10-08T19:46:23.929Z,17.70
2022-10-08T19:48:52.730Z,17.63
2022-10-08T19:51:21.188Z,14.00
2022-10-08T19:53:50.050Z,13.67
2022-10-08T19:56:18.840Z,12.77
2022-10-08T19:58:49.017Z,16.87
2022-10-08T20:01:20.449Z,14.00
2022-10-08T20:03:48.737Z,12.93
2022-10-08T20:06:23.238Z,14.40
2022-10-08T20:08:54.557Z,13.80
2022-10-08T20:11:22.531Z,12.97
2022-10-08T20:13:52.228Z,13.80
2022-10-08T20:16:23.597Z,12.70
2022-10-08T20:18:54.035Z,16.33
2022-10-08T20:21:23.384Z,12.50
2022-10-08T20:23:51.289Z,14.30
2022-10-08T20:26:21.622Z,14.30
2022-10-08T20:28:51.360Z,13.27
2022-10-08T20:31:23.000Z,19.90
2022-10-08T20:33:57.648Z,12.77
2022-10-08T20:36:26.294Z,16.00
2022-10-08T20:38:54.484Z,15.47
2022-10-08T20:41:28.075Z,13.07
2022-10-08T20:44:03.862Z,12.83
2022-10-08T20:46:37.351Z,18.87
2022-10-08T20:49:06.006Z,13.10
2022-10-08T20:51:34.693Z,11.10
2022-10-08T20:54:05.439Z,12.33
2022-10-08T20:56:39.315Z,12.87
2022-10-08T20:59:08.727Z,12.77
2022-10-08T21:01:39.576Z,11.47
2022-10-08T21:04:08.778Z,12.73
2022-10-08T21:06:39.301Z,12.67
2022-10-08T21:09:08.357Z,16.60
2022-10-08T21:11:37.899Z,11.40
2022-10-08T21:14:07.678Z,10.67
2022-10-08T21:16:39.700Z,11.03
2022-10-08T21:19:11.052Z,6.03
2022-10-08T21:21:39.441Z,9.73
2022-10-08T21:24:08.083Z,8.23
2022-10-08T21:26:37.912Z,8.80
2022-10-08T21:29:08.057Z,10.30
2022-10-08T21:31:39.296Z,8.67
2022-10-08T21:34:07.739Z,11.87
2022-10-08T21:36:37.439Z,13.97
2022-10-08T21:39:07.939Z,11.80
2022-10-08T21:41:37.516Z,11.10
2022-10-08T21:44:07.676Z,8.47
2022-10-08T21:46:39.421Z,8.10
2022-10-08T21:49:09.524Z,11.73
2022-10-08T21:51:37.952Z,8.57
2022-10-08T21:54:08.933Z,10.63
2022-10-08T21:56:39.608Z,11.80
2022-10-08T21:59:09.611Z,10.50
2022-10-08T22:01:41.471Z,10.27
2022-10-08T22:04:12.439Z,7.77
2022-10-08T22:06:42.373Z,10.00
2022-10-08T22:09:13.073Z,8.37
2022-10-08T22:11:41.307Z,13.43
2022-10-08T22:14:09.748Z,8.70
2022-10-08T22:16:39.774Z,7.13
2022-10-08T22:19:08.136Z,8.63
2022-10-08T22:21:36.727Z,9.57
2022-10-08T22:24:05.166Z,10.00
2022-10-08T22:26:35.373Z,7.97
2022-10-08T22:29:03.551Z,9.23
2022-10-08T22:31:31.449Z,10.87
2022-10-08T22:34:00.973Z,13.13
2022-10-08T22:36:30.806Z,10.83
2022-10-08T22:38:59.987Z,8.43
2022-10-08T22:41:29.946Z,11.07
2022-10-08T22:43:58.146Z,7.83
2022-10-08T22:46:27.981Z,8.13
2022-10-08T22:48:58.471Z,8.37
2022-10-08T22:51:28.535Z,8.23
2022-10-08T22:53:56.766Z,8.57
2022-10-08T22:56:26.342Z,9.23
2022-10-08T22:58:54.120Z,7.03
2022-10-08T23:01:23.522Z,7.10
2022-10-08T23:03:52.091Z,8.10
2022-10-08T23:06:22.282Z,9.27
2022-10-08T23:08:54.657Z,12.10
2022-10-08T23:11:22.645Z,8.13
2022-10-08T23:13:51.396Z,9.63
2022-10-08T23:16:19.253Z,9.10
2022-10-08T23:18:52.779Z,7.83
2022-10-08T23:21:20.487Z,9.53
2022-10-08T23:23:49.397Z,6.57
2022-10-08T23:26:19.245Z,8.60
2022-10-08T23:28:51.019Z,8.87
2022-10-08T23:31:20.789Z,7.60
2022-10-08T23:33:50.479Z,8.33
2022-10-08T23:36:20.136Z,10.33
2022-10-08T23:38:48.263Z,9.27
2022-10-08T23:41:16.089Z,6.97
2022-10-08T23:43:47.123Z,6.10
2022-10-08T23:46:18.014Z,13.43
2022-10-08T23:48:46.397Z,8.70
2022-10-08T23:51:15.392Z,8.67
2022-10-08T23:53:44.535Z,6.70
2022-10-08T23:56:13.882Z,8.20
2022-10-08T23:58:42.063Z,10.40
